Time;durP1;ratioP1;P1;durP2;ratioP2;P2;SDS_P1;SDS_P2;PMS_P1;PMS_P2;Temp;Humidity;BMP_temperature;BMP_pressure;BME280_temperature;BME280_humidity;BME280_pressure;Samples;Min_cycle;Max_cycle;Signal;HPM_P1;HPM_P2
2021/08/05 00:01:13;;;;;;;1.25;1.15;;;;;;;;;;5072644;28;20076;-78
2021/08/05 00:03:39;;;;;;;1.50;1.38;;;;;;;;;;5072759;28;20466;-77
2021/08/05 00:06:05;;;;;;;1.80;1.52;;;;;;;;;;5072795;28;20040;-77
2021/08/05 00:08:31;;;;;;;1.65;1.45;;;;;;;;;;5074365;28;20056;-77
2021/08/05 00:10:57;;;;;;;1.92;1.70;;;;;;;;;;5078132;28;20382;-77
2021/08/05 00:13:23;;;;;;;1.67;1.33;;;;;;;;;;5085268;28;20035;-78
2021/08/05 00:15:49;;;;;;;2.13;1.52;;;;;;;;;;5093771;28;20478;-78
2021/08/05 00:18:15;;;;;;;1.98;1.55;;;;;;;;;;5095108;28;20553;-77
2021/08/05 00:20:41;;;;;;;3.60;1.50;;;;;;;;;;5108310;28;20436;-78
2021/08/05 00:23:07;;;;;;;1.50;1.40;;;;;;;;;;5098626;28;20099;-78
2021/08/05 00:25:33;;;;;;;1.67;1.52;;;;;;;;;;5089170;28;20025;-79
2021/08/05 00:27:59;;;;;;;2.05;1.20;;;;;;;;;;5089593;28;20032;-78
2021/08/05 00:30:25;;;;;;;1.33;1.20;;;;;;;;;;5088584;28;20028;-77
2021/08/05 00:32:51;;;;;;;2.28;1.83;;;;;;;;;;5093690;28;20104;-78
2021/08/05 00:35:17;;;;;;;1.27;1.20;;;;;;;;;;5088173;28;20043;-77
2021/08/05 00:37:43;;;;;;;1.17;1.17;;;;;;;;;;5099897;28;20024;-79
2021/08/05 00:40:10;;;;;;;1.35;1.20;;;;;;;;;;5092572;28;20066;-77
2021/08/05 00:42:36;;;;;;;1.40;1.30;;;;;;;;;;5102272;28;20024;-78
2021/08/05 00:45:02;;;;;;;1.45;1.35;;;;;;;;;;5094553;28;20043;-78
2021/08/05 00:47:28;;;;;;;1.20;1.10;;;;;;;;;;5091297;28;20043;-79
2021/08/05 00:49:54;;;;;;;1.02;1.00;;;;;;;;;;5091401;28;20039;-78
2021/08/05 00:52:21;;;;;;;1.55;1.20;;;;;;;;;;5088018;28;20080;-77
2021/08/05 00:54:47;;;;;;;1.75;1.55;;;;;;;;;;5086279;28;20020;-78
2021/08/05 00:57:13;;;;;;;1.42;1.33;;;;;;;;;;5092978;28;20042;-79
2021/08/05 00:59:39;;;;;;;1.40;1.27;;;;;;;;;;5094916;28;20116;-77
2021/08/05 01:02:12;;;;;;;1.40;1.13;;;;;;;;;;5103420;28;20137;-79
2021/08/05 01:04:38;;;;;;;1.48;1.38;;;;;;;;;;5102455;28;20028;-78
2021/08/05 01:07:19;;;;;;;2.22;1.42;;;;;;;;;;5092436;28;20040;-77
2021/08/05 01:09:54;;;;;;;2.03;1.85;;;;;;;;;;5094522;28;20024;-77
2021/08/05 01:12:29;;;;;;;1.90;1.80;;;;;;;;;;5108165;28;20020;-77
2021/08/05 01:15:07;;;;;;;2.67;1.75;;;;;;;;;;5084771;28;20442;-79
2021/08/05 01:17:36;;;;;;;1.60;1.50;;;;;;;;;;5089464;28;20047;-78
2021/08/05 01:20:03;;;;;;;1.83;1.45;;;;;;;;;;5103956;28;20099;-77
2021/08/05 01:22:48;;;;;;;1.15;1.13;;;;;;;;;;5079727;28;20040;-77
2021/08/05 01:25:20;;;;;;;1.98;1.30;;;;;;;;;;5098648;28;20024;-78
2021/08/05 01:27:46;;;;;;;1.58;1.48;;;;;;;;;;5100253;28;20032;-78
2021/08/05 01:30:13;;;;;;;2.53;1.70;;;;;;;;;;5100044;28;20066;-77
2021/08/05 01:32:40;;;;;;;1.65;1.50;;;;;;;;;;5100125;28;20024;-77
2021/08/05 01:35:06;;;;;;;2.60;1.63;;;;;;;;;;5099487;28;20061;-77
2021/08/05 01:37:32;;;;;;;2.88;1.92;;;;;;;;;;5090908;28;20030;-77
2021/08/05 01:39:59;;;;;;;1.73;1.40;;;;;;;;;;5099538;28;20093;-78
2021/08/05 01:42:25;;;;;;;2.00;1.80;;;;;;;;;;5093972;28;20104;-77
2021/08/05 01:44:52;;;;;;;1.80;1.70;;;;;;;;;;5079914;28;20029;-78
2021/08/05 01:47:20;;;;;;;3.08;1.75;;;;;;;;;;5087082;28;20111;-76
2021/08/05 01:49:47;;;;;;;2.45;2.25;;;;;;;;;;5096752;28;20031;-77
2021/08/05 01:52:13;;;;;;;2.05;1.85;;;;;;;;;;5087931;28;20461;-77
2021/08/05 01:54:40;;;;;;;2.80;2.22;;;;;;;;;;5080241;28;20095;-78
2021/08/05 01:57:06;;;;;;;3.92;3.42;;;;;;;;;;5079746;28;20027;-77
2021/08/05 01:59:32;;;;;;;2.08;1.88;;;;;;;;;;5082902;28;20055;-78
2021/08/05 02:02:00;;;;;;;1.13;1.00;;;;;;;;;;5082129;28;20044;-78
2021/08/05 02:04:29;;;;;;;1.27;1.17;;;;;;;;;;5097565;28;20028;-78
2021/08/05 02:07:15;;;;;;;0.90;0.90;;;;;;;;;;5097820;28;20343;-79
2021/08/05 02:10:00;;;;;;;0.60;0.60;;;;;;;;;;5097291;28;20035;-79
2021/08/05 02:12:28;;;;;;;0.38;0.38;;;;;;;;;;5086105;28;20021;-78
2021/08/05 02:14:54;;;;;;;2.08;0.55;;;;;;;;;;5101814;28;20031;-78
2021/08/05 02:17:20;;;;;;;0.65;0.65;;;;;;;;;;5096242;28;20039;-78
2021/08/05 02:19:47;;;;;;;0.82;0.43;;;;;;;;;;5102887;28;20024;-78
2021/08/05 02:22:13;;;;;;;0.90;0.60;;;;;;;;;;5082447;28;20036;-79
2021/08/05 02:24:40;;;;;;;0.35;0.35;;;;;;;;;;5087146;28;20028;-79
2021/08/05 02:27:06;;;;;;;0.60;0.60;;;;;;;;;;5096194;28;20028;-79
2021/08/05 02:29:32;;;;;;;0.47;0.47;;;;;;;;;;5094896;28;20504;-79
2021/08/05 02:32:01;;;;;;;0.65;0.60;;;;;;;;;;5093960;28;20106;-80
2021/08/05 02:34:29;;;;;;;0.50;0.50;;;;;;;;;;5076351;28;20074;-79
2021/08/05 02:36:55;;;;;;;0.50;0.50;;;;;;;;;;5075450;28;20020;-79
2021/08/05 02:39:21;;;;;;;0.50;0.50;;;;;;;;;;5075835;28;20024;-79
2021/08/05 02:41:49;;;;;;;0.65;0.65;;;;;;;;;;5075524;28;20016;-78
2021/08/05 02:44:15;;;;;;;0.50;0.50;;;;;;;;;;5084223;28;20021;-79
2021/08/05 02:46:42;;;;;;;1.35;0.85;;;;;;;;;;5083902;28;20028;-78
2021/08/05 02:49:08;;;;;;;0.60;0.60;;;;;;;;;;5085010;28;20024;-79
2021/08/05 02:51:36;;;;;;;0.73;0.73;;;;;;;;;;5079209;28;20031;-77
2021/08/05 02:54:02;;;;;;;0.82;0.70;;;;;;;;;;5075592;28;20123;-78
2021/08/05 02:56:29;;;;;;;1.15;1.05;;;;;;;;;;5077629;28;20049;-78
2021/08/05 02:58:55;;;;;;;0.90;0.90;;;;;;;;;;5075773;28;20025;-78
2021/08/05 03:01:22;;;;;;;1.92;1.00;;;;;;;;;;5078534;28;20062;-78
2021/08/05 03:03:52;;;;;;;2.20;1.10;;;;;;;;;;5082610;28;20394;-79
2021/08/05 03:06:23;;;;;;;1.58;0.90;;;;;;;;;;5078612;28;20522;-77
2021/08/05 03:08:49;;;;;;;1.35;1.02;;;;;;;;;;5095543;28;20082;-79
2021/08/05 03:11:15;;;;;;;1.27;0.98;;;;;;;;;;5095269;28;20028;-78
2021/08/05 03:13:41;;;;;;;1.70;0.98;;;;;;;;;;5094297;28;20031;-78
2021/08/05 03:16:07;;;;;;;1.90;1.25;;;;;;;;;;5095106;28;20024;-79
2021/08/05 03:18:33;;;;;;;1.33;1.23;;;;;;;;;;5088265;28;20024;-79
2021/08/05 03:20:59;;;;;;;1.42;1.13;;;;;;;;;;5073952;28;20455;-78
2021/08/05 03:23:25;;;;;;;1.10;1.02;;;;;;;;;;5073797;28;20476;-77
2021/08/05 03:25:54;;;;;;;1.10;1.10;;;;;;;;;;5072395;28;20370;-78
2021/08/05 03:28:20;;;;;;;2.28;1.30;;;;;;;;;;5083020;28;20024;-78
2021/08/05 03:30:46;;;;;;;1.33;1.20;;;;;;;;;;5094567;28;20060;-78
2021/08/05 03:33:12;;;;;;;1.38;0.95;;;;;;;;;;5092765;28;20493;-77
2021/08/05 03:35:38;;;;;;;1.55;1.20;;;;;;;;;;5092592;28;20034;-78
2021/08/05 03:38:04;;;;;;;1.67;1.58;;;;;;;;;;5092161;28;20082;-78
2021/08/05 03:40:30;;;;;;;1.83;1.73;;;;;;;;;;5081971;28;20031;-78
2021/08/05 03:42:56;;;;;;;2.70;2.00;;;;;;;;;;5075018;28;20039;-77
2021/08/05 03:45:23;;;;;;;3.13;2.80;;;;;;;;;;5089817;28;20087;-78
2021/08/05 03:47:49;;;;;;;2.38;2.17;;;;;;;;;;5085875;28;20074;-79
2021/08/05 03:50:15;;;;;;;3.22;2.40;;;;;;;;;;5094725;28;20039;-78
2021/08/05 03:52:41;;;;;;;2.80;2.60;;;;;;;;;;5089975;28;20028;-78
2021/08/05 03:55:13;;;;;;;3.13;2.83;;;;;;;;;;5089190;28;20043;-78
2021/08/05 03:57:39;;;;;;;3.58;3.10;;;;;;;;;;5078321;28;20021;-78
2021/08/05 04:00:06;;;;;;;3.45;3.10;;;;;;;;;;5078194;28;20029;-78
2021/08/05 04:02:32;;;;;;;4.75;2.95;;;;;;;;;;5085961;28;20021;-78
2021/08/05 04:04:58;;;;;;;3.53;3.00;;;;;;;;;;5079486;28;20077;-78
2021/08/05 04:07:24;;;;;;;2.83;2.55;;;;;;;;;;5087907;28;20058;-79
2021/08/05 04:09:50;;;;;;;3.20;2.90;;;;;;;;;;5080933;28;20031;-80
2021/08/05 04:12:16;;;;;;;5.10;3.30;;;;;;;;;;5096860;28;20024;-79
2021/08/05 04:14:42;;;;;;;3.42;3.13;;;;;;;;;;5098718;28;20035;-79
2021/08/05 04:17:08;;;;;;;4.93;3.40;;;;;;;;;;5094585;28;20033;-79
2021/08/05 04:19:34;;;;;;;3.55;3.10;;;;;;;;;;5083744;28;20028;-80
2021/08/05 04:22:00;;;;;;;3.53;3.20;;;;;;;;;;5094640;28;20038;-79
2021/08/05 04:24:26;;;;;;;5.82;4.57;;;;;;;;;;5097943;28;20103;-79
2021/08/05 04:26:55;;;;;;;4.32;3.53;;;;;;;;;;5096196;28;20084;-79
2021/08/05 04:29:21;;;;;;;6.03;3.58;;;;;;;;;;5078447;28;20036;-80
2021/08/05 04:31:47;;;;;;;6.00;3.97;;;;;;;;;;5076429;28;20118;-79
2021/08/05 04:34:14;;;;;;;5.20;4.18;;;;;;;;;;5078063;28;20056;-79
2021/08/05 04:36:40;;;;;;;4.80;3.40;;;;;;;;;;5077196;28;20027;-79
2021/08/05 04:39:06;;;;;;;4.45;4.00;;;;;;;;;;5078374;28;20048;-79
2021/08/05 04:41:32;;;;;;;4.60;3.72;;;;;;;;;;5077105;28;20474;-78
2021/08/05 04:43:59;;;;;;;4.95;4.00;;;;;;;;;;5087169;28;20127;-81
2021/08/05 04:46:25;;;;;;;4.30;3.65;;;;;;;;;;5086236;28;20028;-81
2021/08/05 04:48:51;;;;;;;3.70;3.40;;;;;;;;;;5093463;28;20111;-81
2021/08/05 04:51:17;;;;;;;3.47;2.85;;;;;;;;;;5095708;28;20056;-81
2021/08/05 04:53:43;;;;;;;7.25;3.78;;;;;;;;;;5081984;28;20047;-80
2021/08/05 04:56:09;;;;;;;5.80;3.67;;;;;;;;;;5088931;28;20033;-80
2021/08/05 04:58:35;;;;;;;4.30;3.78;;;;;;;;;;5102128;28;20107;-81
2021/08/05 05:01:01;;;;;;;5.20;3.63;;;;;;;;;;5102981;28;20058;-82
2021/08/05 05:03:27;;;;;;;4.28;3.22;;;;;;;;;;5102048;28;20492;-82
2021/08/05 05:05:53;;;;;;;3.28;2.85;;;;;;;;;;5103168;28;20031;-82
2021/08/05 05:08:20;;;;;;;3.05;2.60;;;;;;;;;;5095971;28;20052;-82
2021/08/05 05:10:47;;;;;;;3.53;2.60;;;;;;;;;;5097964;28;20053;-81
2021/08/05 05:13:14;;;;;;;2.70;2.50;;;;;;;;;;5097788;28;20224;-81
2021/08/05 05:15:40;;;;;;;2.50;2.30;;;;;;;;;;5096468;28;20043;-82
2021/08/05 05:18:07;;;;;;;5.60;2.67;;;;;;;;;;5107351;28;20023;-82
2021/08/05 05:20:33;;;;;;;2.78;2.45;;;;;;;;;;5118153;28;20051;-82
2021/08/05 05:23:00;;;;;;;3.05;1.90;;;;;;;;;;5107289;28;20078;-81
2021/08/05 05:25:26;;;;;;;2.75;2.47;;;;;;;;;;5103982;28;20050;-82
2021/08/05 05:27:52;;;;;;;2.33;2.13;;;;;;;;;;5093476;28;20059;-82
2021/08/05 05:30:19;;;;;;;4.07;2.10;;;;;;;;;;5084483;28;20206;-81
2021/08/05 05:32:46;;;;;;;6.75;2.35;;;;;;;;;;5083186;28;20381;-82
2021/08/05 05:35:14;;;;;;;2.20;2.00;;;;;;;;;;5084926;28;20019;-81
2021/08/05 05:37:40;;;;;;;4.03;2.20;;;;;;;;;;5082213;28;20478;-81
2021/08/05 05:40:06;;;;;;;3.85;2.45;;;;;;;;;;5081653;28;20036;-81
2021/08/05 05:42:33;;;;;;;4.43;2.60;;;;;;;;;;5081922;28;20155;-80
2021/08/05 05:45:00;;;;;;;5.57;2.42;;;;;;;;;;5081962;28;20460;-81
2021/08/05 05:47:26;;;;;;;3.28;2.00;;;;;;;;;;5081848;28;20058;-80
2021/08/05 05:49:56;;;;;;;2.20;2.00;;;;;;;;;;5093287;28;20031;-80
2021/08/05 05:52:23;;;;;;;2.35;1.88;;;;;;;;;;5081416;28;20036;-80
2021/08/05 05:54:49;;;;;;;2.53;1.85;;;;;;;;;;5081111;28;20481;-80
2021/08/05 05:57:15;;;;;;;3.20;2.10;;;;;;;;;;5080705;28;20029;-80
2021/08/05 05:59:41;;;;;;;2.13;1.95;;;;;;;;;;5081582;28;20020;-80
2021/08/05 06:02:08;;;;;;;2.10;1.60;;;;;;;;;;5081140;28;20016;-80
2021/08/05 06:04:34;;;;;;;3.45;2.13;;;;;;;;;;5081044;28;20025;-80
2021/08/05 06:07:00;;;;;;;6.28;1.73;;;;;;;;;;5087895;28;20409;-80
2021/08/05 06:09:26;;;;;;;2.17;1.55;;;;;;;;;;5101509;28;20024;-80
2021/08/05 06:11:52;;;;;;;2.22;1.80;;;;;;;;;;5101894;28;20020;-80
2021/08/05 06:14:18;;;;;;;4.05;1.70;;;;;;;;;;5101828;28;20032;-80
2021/08/05 06:16:45;;;;;;;2.03;1.77;;;;;;;;;;5104206;28;20020;-80
2021/08/05 06:19:12;;;;;;;3.60;2.15;;;;;;;;;;5100409;28;20031;-79
2021/08/05 06:21:38;;;;;;;4.95;2.10;;;;;;;;;;5106370;28;20024;-80
2021/08/05 06:24:05;;;;;;;2.42;1.60;;;;;;;;;;5105696;28;20024;-80
2021/08/05 06:26:31;;;;;;;1.27;1.17;;;;;;;;;;5103125;28;20427;-80
2021/08/05 06:28:57;;;;;;;4.55;1.67;;;;;;;;;;5103419;28;20059;-81
2021/08/05 06:31:23;;;;;;;2.67;1.25;;;;;;;;;;5102479;28;20020;-80
2021/08/05 06:33:51;;;;;;;3.50;1.55;;;;;;;;;;5102452;28;20127;-79
2021/08/05 06:36:21;;;;;;;2.65;1.45;;;;;;;;;;5102070;28;20049;-80
2021/08/05 06:38:47;;;;;;;1.48;1.33;;;;;;;;;;5102254;28;20039;-80
2021/08/05 06:41:14;;;;;;;2.47;1.67;;;;;;;;;;5101281;28;20058;-80
2021/08/05 06:43:40;;;;;;;2.38;1.65;;;;;;;;;;5088089;28;20080;-80
2021/08/05 06:46:06;;;;;;;2.60;1.90;;;;;;;;;;5085137;28;20035;-80
2021/08/05 06:48:32;;;;;;;1.98;1.77;;;;;;;;;;5081139;28;20025;-80
2021/08/05 06:50:58;;;;;;;2.13;1.92;;;;;;;;;;5080794;28;20032;-80
2021/08/05 06:53:24;;;;;;;6.00;2.30;;;;;;;;;;5081810;28;20033;-82
2021/08/05 06:55:50;;;;;;;6.63;2.30;;;;;;;;;;5082516;28;20617;-81
2021/08/05 06:58:25;;;;;;;2.78;2.45;;;;;;;;;;5082324;28;20474;-81
2021/08/05 07:00:52;;;;;;;6.82;2.35;;;;;;;;;;5082592;28;20102;-80
2021/08/05 07:03:18;;;;;;;3.67;2.80;;;;;;;;;;5082053;28;20094;-81
2021/08/05 07:05:44;;;;;;;2.17;1.98;;;;;;;;;;5083367;28;20484;-81
2021/08/05 07:08:10;;;;;;;2.78;2.25;;;;;;;;;;5082246;28;20035;-80
2021/08/05 07:10:36;;;;;;;2.20;2.00;;;;;;;;;;5079633;28;20024;-80
2021/08/05 07:13:03;;;;;;;2.28;1.92;;;;;;;;;;5081667;28;20028;-81
2021/08/05 07:15:29;;;;;;;2.63;1.95;;;;;;;;;;5083264;28;20104;-81
2021/08/05 07:17:58;;;;;;;3.28;2.20;;;;;;;;;;5080035;28;20124;-81
2021/08/05 07:20:24;;;;;;;3.28;1.90;;;;;;;;;;5081379;28;20099;-80
2021/08/05 07:22:50;;;;;;;2.83;2.08;;;;;;;;;;5080647;28;20021;-80
2021/08/05 07:25:17;;;;;;;2.25;2.05;;;;;;;;;;5080336;28;20029;-80
2021/08/05 07:27:44;;;;;;;4.15;2.53;;;;;;;;;;5085994;28;20024;-83
2021/08/05 07:30:11;;;;;;;2.38;2.17;;;;;;;;;;5089905;28;20021;-81
2021/08/05 07:32:37;;;;;;;4.30;2.33;;;;;;;;;;5092061;28;20051;-81
2021/08/05 07:35:04;;;;;;;7.15;2.40;;;;;;;;;;5092106;28;20021;-81
2021/08/05 07:37:33;;;;;;;3.75;2.42;;;;;;;;;;5087054;28;20036;-81
2021/08/05 07:39:59;;;;;;;4.28;2.45;;;;;;;;;;5084598;28;20048;-81
2021/08/05 07:42:34;;;;;;;3.88;2.60;;;;;;;;;;5084558;28;20035;-80
2021/08/05 07:45:00;;;;;;;2.67;2.20;;;;;;;;;;5082109;28;20132;-81
2021/08/05 07:47:27;;;;;;;3.03;2.47;;;;;;;;;;5080270;28;20025;-81
2021/08/05 07:49:54;;;;;;;5.10;3.17;;;;;;;;;;5081974;28;20032;-81
2021/08/05 07:52:23;;;;;;;3.08;2.17;;;;;;;;;;5080552;28;20199;-81
2021/08/05 07:54:49;;;;;;;5.10;2.80;;;;;;;;;;5079607;28;20104;-81
2021/08/05 07:57:15;;;;;;;2.22;2.03;;;;;;;;;;5080660;28;20042;-81
2021/08/05 07:59:42;;;;;;;3.90;2.60;;;;;;;;;;5080842;28;20485;-80
2021/08/05 08:02:09;;;;;;;3.33;2.35;;;;;;;;;;5085920;28;20028;-80
2021/08/05 08:04:35;;;;;;;4.82;3.58;;;;;;;;;;5099769;28;20032;-80
2021/08/05 08:07:01;;;;;;;4.15;2.60;;;;;;;;;;5102664;28;20059;-79
2021/08/05 08:09:27;;;;;;;3.78;2.88;;;;;;;;;;5100403;28;20051;-79
2021/08/05 08:11:57;;;;;;;3.83;2.92;;;;;;;;;;5101084;28;20020;-79
2021/08/05 08:14:23;;;;;;;4.22;3.00;;;;;;;;;;5102169;28;20028;-79
2021/08/05 08:16:49;;;;;;;4.70;2.50;;;;;;;;;;5092966;28;20063;-79
2021/08/05 08:19:15;;;;;;;2.58;1.90;;;;;;;;;;5087988;28;20027;-80
2021/08/05 08:21:41;;;;;;;2.58;2.20;;;;;;;;;;5090417;28;20047;-80
2021/08/05 08:24:09;;;;;;;5.38;3.53;;;;;;;;;;5088200;28;20027;-80
2021/08/05 08:26:36;;;;;;;4.93;2.70;;;;;;;;;;5085387;28;20055;-79
2021/08/05 08:29:03;;;;;;;3.60;3.22;;;;;;;;;;5082011;28;20131;-79
2021/08/05 08:31:29;;;;;;;4.65;3.63;;;;;;;;;;5081588;28;20031;-79
2021/08/05 08:33:55;;;;;;;4.95;3.47;;;;;;;;;;5086370;28;20020;-80
2021/08/05 08:36:21;;;;;;;2.95;2.30;;;;;;;;;;5091703;28;20028;-80
2021/08/05 08:38:48;;;;;;;5.22;3.25;;;;;;;;;;5089355;28;20038;-81
2021/08/05 08:41:14;;;;;;;7.50;3.38;;;;;;;;;;5084329;28;20052;-80
2021/08/05 08:43:40;;;;;;;4.88;3.00;;;;;;;;;;5083139;28;20051;-81
2021/08/05 08:46:08;;;;;;;5.15;3.08;;;;;;;;;;5085976;28;20021;-81
2021/08/05 08:48:34;;;;;;;2.97;2.67;;;;;;;;;;5084584;28;20028;-81
2021/08/05 08:51:01;;;;;;;5.80;3.25;;;;;;;;;;5085417;28;20021;-81
2021/08/05 08:53:30;;;;;;;3.97;2.83;;;;;;;;;;5085097;28;20442;-81
2021/08/05 08:55:56;;;;;;;6.30;3.60;;;;;;;;;;5085034;28;20024;-81
2021/08/05 08:58:23;;;;;;;2.83;2.60;;;;;;;;;;5105741;22;20056;-80
2021/08/05 09:00:50;;;;;;;5.68;3.08;;;;;;;;;;5064306;28;20033;-80
2021/08/05 09:03:16;;;;;;;2.97;2.67;;;;;;;;;;5069805;28;20021;-80
2021/08/05 09:05:42;;;;;;;5.03;3.30;;;;;;;;;;5071999;28;20025;-79
2021/08/05 09:08:08;;;;;;;4.22;3.83;;;;;;;;;;5061822;28;20028;-81
2021/08/05 09:10:35;;;;;;;4.97;3.17;;;;;;;;;;5064271;28;20107;-82
2021/08/05 09:13:03;;;;;;;4.00;3.03;;;;;;;;;;5063974;28;20161;-81
2021/08/05 09:15:33;;;;;;;5.47;3.30;;;;;;;;;;5064545;28;20443;-81
2021/08/05 09:17:59;;;;;;;3.40;3.10;;;;;;;;;;5067737;28;20124;-81
2021/08/05 09:20:25;;;;;;;4.70;3.53;;;;;;;;;;5075949;28;20135;-82
2021/08/05 09:22:51;;;;;;;6.18;3.50;;;;;;;;;;5076126;28;20036;-80
2021/08/05 09:25:25;;;;;;;5.85;3.53;;;;;;;;;;5067384;28;20021;-81
2021/08/05 09:27:52;;;;;;;3.78;2.78;;;;;;;;;;5064949;28;20037;-80
2021/08/05 09:30:28;;;;;;;4.03;3.10;;;;;;;;;;5065262;28;20031;-81
2021/08/05 09:32:55;;;;;;;4.45;2.50;;;;;;;;;;5062693;28;20112;-81
2021/08/05 09:35:21;;;;;;;7.90;3.08;;;;;;;;;;5065271;28;20082;-81
2021/08/05 09:37:47;;;;;;;2.55;2.28;;;;;;;;;;5062419;28;20036;-81
2021/08/05 09:40:14;;;;;;;2.97;2.60;;;;;;;;;;5067214;28;20036;-81
2021/08/05 09:42:41;;;;;;;3.05;2.45;;;;;;;;;;5067045;28;20394;-81
2021/08/05 09:45:07;;;;;;;3.72;2.83;;;;;;;;;;5065089;28;20039;-82
2021/08/05 09:47:43;;;;;;;4.85;2.60;;;;;;;;;;5064906;28;20017;-82
2021/08/05 09:50:11;;;;;;;3.30;2.60;;;;;;;;;;5064663;28;20112;-81
2021/08/05 09:52:38;;;;;;;2.75;2.50;;;;;;;;;;5062300;28;20021;-82
2021/08/05 09:55:07;;;;;;;2.05;1.95;;;;;;;;;;5063034;28;20082;-80
2021/08/05 09:57:34;;;;;;;3.30;2.47;;;;;;;;;;5062383;28;20025;-80
2021/08/05 10:00:04;;;;;;;3.05;2.35;;;;;;;;;;5064128;28;20036;-81
2021/08/05 10:02:40;;;;;;;3.25;2.35;;;;;;;;;;5065703;28;20054;-82
2021/08/05 10:05:13;;;;;;;2.40;2.20;;;;;;;;;;5062796;28;20402;-82
2021/08/05 10:07:45;;;;;;;3.72;2.38;;;;;;;;;;5063437;28;20089;-81
2021/08/05 10:10:12;;;;;;;2.47;2.10;;;;;;;;;;5065426;28;20088;-81
2021/08/05 10:12:38;;;;;;;3.70;2.50;;;;;;;;;;5063803;28;20029;-82
2021/08/05 10:15:09;;;;;;;2.80;2.40;;;;;;;;;;5068603;28;20120;-82
2021/08/05 10:17:35;;;;;;;3.43;2.43;;;;;;;;;;5083243;28;20020;-82
2021/08/05 10:20:03;;;;;;;3.15;2.50;;;;;;;;;;5068240;28;20267;-81
2021/08/05 10:22:31;;;;;;;2.58;2.30;;;;;;;;;;5049414;28;20098;-82
2021/08/05 10:24:57;;;;;;;6.57;2.58;;;;;;;;;;5039702;28;20036;-82
2021/08/05 10:27:23;;;;;;;2.55;2.28;;;;;;;;;;5044065;28;20479;-82
2021/08/05 10:29:50;;;;;;;4.78;2.45;;;;;;;;;;5060555;28;20021;-82
2021/08/05 10:32:20;;;;;;;2.65;2.05;;;;;;;;;;5054433;28;20036;-82
2021/08/05 10:34:46;;;;;;;2.47;2.28;;;;;;;;;;5040611;28;20018;-82
2021/08/05 10:37:13;;;;;;;3.20;2.60;;;;;;;;;;5057728;28;20398;-82
2021/08/05 10:39:40;;;;;;;4.10;2.95;;;;;;;;;;5062050;28;20478;-81
2021/08/05 10:42:09;;;;;;;4.78;2.67;;;;;;;;;;5060778;28;20048;-82
2021/08/05 10:44:36;;;;;;;2.38;1.90;;;;;;;;;;5061088;28;20351;-81
2021/08/05 10:47:03;;;;;;;2.88;2.67;;;;;;;;;;5066862;28;20055;-80
2021/08/05 10:49:29;;;;;;;3.40;2.05;;;;;;;;;;5052018;28;20040;-81
2021/08/05 10:51:55;;;;;;;4.28;2.80;;;;;;;;;;5052325;28;20024;-81
2021/08/05 10:54:40;;;;;;;3.05;2.75;;;;;;;;;;5059681;28;20446;-82
2021/08/05 10:57:32;;;;;;;3.20;2.47;;;;;;;;;;5052962;28;20109;-81
2021/08/05 10:59:59;;;;;;;4.18;2.67;;;;;;;;;;5036912;28;20065;-81
2021/08/05 11:02:44;;;;;;;3.15;2.30;;;;;;;;;;5049919;28;20025;-82
2021/08/05 11:05:10;;;;;;;2.35;2.00;;;;;;;;;;5059888;28;20175;-82
2021/08/05 11:07:36;;;;;;;3.05;2.35;;;;;;;;;;5068543;28;20115;-81
2021/08/05 11:10:15;;;;;;;3.60;2.25;;;;;;;;;;5062305;28;20056;-81
2021/08/05 11:12:45;;;;;;;3.78;1.90;;;;;;;;;;5059692;28;20028;-82
2021/08/05 11:15:25;;;;;;;3.45;1.90;;;;;;;;;;5058660;28;20032;-80
2021/08/05 11:20:34;;;;;;;2.45;2.08;;;;;;;;;;5049645;28;20029;-82
2021/08/05 11:23:00;;;;;;;2.22;2.03;;;;;;;;;;5066706;28;20029;-81
2021/08/05 11:25:26;;;;;;;2.92;2.40;;;;;;;;;;5063962;28;20025;-81
2021/08/05 11:28:11;;;;;;;2.05;1.77;;;;;;;;;;5062306;28;20029;-81
2021/08/05 11:30:44;;;;;;;2.88;2.38;;;;;;;;;;5039413;28;20060;-82
2021/08/05 11:33:29;;;;;;;4.15;2.13;;;;;;;;;;5053248;28;20462;-82
2021/08/05 11:36:15;;;;;;;2.13;1.92;;;;;;;;;;5069948;28;20028;-81
2021/08/05 11:38:57;;;;;;;2.83;2.13;;;;;;;;;;5069350;28;20089;-82
2021/08/05 11:41:41;;;;;;;2.50;2.28;;;;;;;;;;5044532;28;20031;-81
2021/08/05 11:44:17;;;;;;;2.17;1.98;;;;;;;;;;5050753;28;20017;-80
2021/08/05 11:46:46;;;;;;;2.88;1.92;;;;;;;;;;5070734;28;20016;-80
2021/08/05 11:49:31;;;;;;;1.70;1.45;;;;;;;;;;5074613;28;20035;-82
2021/08/05 11:51:58;;;;;;;1.90;1.80;;;;;;;;;;5058975;28;20083;-82
2021/08/05 11:54:24;;;;;;;2.83;2.17;;;;;;;;;;5048002;28;20093;-82
2021/08/05 11:57:04;;;;;;;2.17;2.00;;;;;;;;;;5039635;28;20021;-81
2021/08/05 11:59:39;;;;;;;2.90;1.70;;;;;;;;;;5040958;28;20107;-81
2021/08/05 12:02:06;;;;;;;1.80;1.70;;;;;;;;;;5058251;28;20041;-82
2021/08/05 12:04:32;;;;;;;1.77;1.67;;;;;;;;;;5056974;28;20048;-82
2021/08/05 12:07:18;;;;;;;2.08;1.67;;;;;;;;;;5057712;28;20550;-82
2021/08/05 12:09:44;;;;;;;2.05;1.88;;;;;;;;;;5061610;28;20041;-82
2021/08/05 12:12:10;;;;;;;2.53;1.70;;;;;;;;;;5062256;28;20055;-81
2021/08/05 12:14:36;;;;;;;4.60;1.83;;;;;;;;;;5065405;28;20104;-81
2021/08/05 12:17:02;;;;;;;2.20;1.67;;;;;;;;;;5069666;28;20443;-81
2021/08/05 12:19:31;;;;;;;1.98;1.50;;;;;;;;;;5070819;28;20094;-82
2021/08/05 12:21:57;;;;;;;1.73;1.58;;;;;;;;;;5048474;28;20061;-81
2021/08/05 12:24:25;;;;;;;2.38;1.80;;;;;;;;;;5048288;28;20037;-81
2021/08/05 12:27:00;;;;;;;1.73;1.60;;;;;;;;;;5049231;28;20061;-84
2021/08/05 12:29:26;;;;;;;1.80;1.70;;;;;;;;;;5062837;28;20029;-82
2021/08/05 12:31:52;;;;;;;1.77;1.67;;;;;;;;;;5059244;28;20025;-82
2021/08/05 12:34:19;;;;;;;1.70;1.60;;;;;;;;;;5043518;28;20017;-82
2021/08/05 12:36:45;;;;;;;1.48;1.40;;;;;;;;;;5042731;28;20032;-82
2021/08/05 12:39:11;;;;;;;4.07;1.67;;;;;;;;;;5043479;28;20036;-81
2021/08/05 12:41:40;;;;;;;2.50;1.60;;;;;;;;;;5041191;28;20064;-82
2021/08/05 12:44:07;;;;;;;1.52;1.40;;;;;;;;;;5053130;28;20033;-82
2021/08/05 12:46:34;;;;;;;3.00;1.60;;;;;;;;;;5068673;28;20031;-82
2021/08/05 12:49:00;;;;;;;1.75;1.50;;;;;;;;;;5065821;28;20113;-81
2021/08/05 12:51:30;;;;;;;3.13;1.40;;;;;;;;;;5044503;28;20172;-82
2021/08/05 12:53:57;;;;;;;1.52;1.40;;;;;;;;;;5055611;28;20021;-82
2021/08/05 12:56:43;;;;;;;2.53;1.38;;;;;;;;;;5063043;28;20047;-80
2021/08/05 12:59:09;;;;;;;1.52;1.40;;;;;;;;;;5072602;28;20048;-81
2021/08/05 13:01:35;;;;;;;1.40;1.27;;;;;;;;;;5070406;28;20078;-81
2021/08/05 13:04:02;;;;;;;1.08;1.08;;;;;;;;;;5057069;28;20025;-81
2021/08/05 13:06:48;;;;;;;1.63;1.05;;;;;;;;;;5046364;28;20021;-81
2021/08/05 13:09:14;;;;;;;3.67;1.20;;;;;;;;;;5060004;28;20029;-82
2021/08/05 13:11:40;;;;;;;1.33;1.20;;;;;;;;;;5063282;28;20036;-84
2021/08/05 13:14:25;;;;;;;2.17;1.50;;;;;;;;;;5062845;28;20040;-83
2021/08/05 13:17:01;;;;;;;0.98;0.98;;;;;;;;;;5064071;28;20081;-83
2021/08/05 13:19:28;;;;;;;1.30;1.20;;;;;;;;;;5062905;28;20514;-84
2021/08/05 13:21:55;;;;;;;1.60;1.17;;;;;;;;;;5062812;28;20025;-81
2021/08/05 13:24:22;;;;;;;1.20;1.10;;;;;;;;;;5061167;28;20037;-83
2021/08/05 13:26:49;;;;;;;1.33;0.93;;;;;;;;;;5067279;28;20021;-80
2021/08/05 13:29:38;;;;;;;1.00;1.00;;;;;;;;;;5068664;28;20067;-80
2021/08/05 13:32:11;;;;;;;1.05;0.98;;;;;;;;;;5062025;28;20025;-80
2021/08/05 13:34:37;;;;;;;1.05;1.00;;;;;;;;;;5061691;28;20111;-80
2021/08/05 13:37:04;;;;;;;1.42;1.33;;;;;;;;;;5061567;28;20029;-81
2021/08/05 13:39:46;;;;;;;1.45;1.10;;;;;;;;;;5062433;28;20024;-81
2021/08/05 13:42:13;;;;;;;2.28;1.20;;;;;;;;;;5063555;28;20021;-81
2021/08/05 13:44:40;;;;;;;3.08;1.13;;;;;;;;;;5064087;28;20036;-82
2021/08/05 13:47:06;;;;;;;0.90;0.90;;;;;;;;;;5068211;28;20116;-81
2021/08/05 13:49:32;;;;;;;0.68;0.68;;;;;;;;;;5071671;28;20029;-83
2021/08/05 13:51:58;;;;;;;1.40;0.85;;;;;;;;;;5063720;28;20124;-82
2021/08/05 13:54:25;;;;;;;1.05;0.98;;;;;;;;;;5064985;28;20029;-81
2021/08/05 13:56:51;;;;;;;2.70;0.90;;;;;;;;;;5062079;28;20036;-81
2021/08/05 13:59:17;;;;;;;1.60;0.98;;;;;;;;;;5062634;28;20033;-80
2021/08/05 14:01:43;;;;;;;0.88;0.73;;;;;;;;;;5059732;28;20486;-80
2021/08/05 14:04:10;;;;;;;1.27;1.20;;;;;;;;;;5063289;28;20033;-79
2021/08/05 14:06:36;;;;;;;0.80;0.80;;;;;;;;;;5064263;28;20067;-79
2021/08/05 14:09:03;;;;;;;0.95;0.95;;;;;;;;;;5058087;28;20099;-80
2021/08/05 14:11:29;;;;;;;3.97;0.90;;;;;;;;;;5059103;28;20414;-81
2021/08/05 14:13:55;;;;;;;0.73;0.73;;;;;;;;;;5059559;28;20029;-80
2021/08/05 14:16:22;;;;;;;1.23;0.70;;;;;;;;;;5073699;28;20106;-81
2021/08/05 14:18:48;;;;;;;0.90;0.90;;;;;;;;;;5074700;28;20035;-79
2021/08/05 14:21:15;;;;;;;1.50;0.80;;;;;;;;;;5058379;28;20039;-81
2021/08/05 14:23:41;;;;;;;6.30;1.25;;;;;;;;;;5055205;28;20056;-80
2021/08/05 14:26:07;;;;;;;0.70;0.70;;;;;;;;;;5045286;28;20032;-80
2021/08/05 14:28:33;;;;;;;1.02;1.00;;;;;;;;;;5060749;28;20033;-81
2021/08/05 14:31:00;;;;;;;1.50;1.40;;;;;;;;;;5058866;28;20021;-82
2021/08/05 14:33:26;;;;;;;1.38;0.70;;;;;;;;;;5058624;28;20055;-79
2021/08/05 14:35:53;;;;;;;1.70;0.73;;;;;;;;;;5057421;28;20045;-79
2021/08/05 14:38:19;;;;;;;1.08;1.00;;;;;;;;;;5057385;28;20024;-79
2021/08/05 14:40:45;;;;;;;3.17;0.80;;;;;;;;;;5055805;28;20033;-79
2021/08/05 14:43:13;;;;;;;0.88;0.88;;;;;;;;;;5056322;28;20043;-79
2021/08/05 14:45:39;;;;;;;1.05;0.95;;;;;;;;;;5043385;28;20040;-78
2021/08/05 14:48:05;;;;;;;1.35;1.00;;;;;;;;;;5061800;28;20037;-79
2021/08/05 14:50:34;;;;;;;1.48;1.30;;;;;;;;;;5047202;28;20395;-79